Time;durP1;ratioP1;P1;durP2;ratioP2;P2;SDS_P1;SDS_P2;PMS_P1;PMS_P2;Temp;Humidity;BMP_temperature;BMP_pressure;BME280_temperature;BME280_humidity;BME280_pressure;Samples;Min_cycle;Max_cycle;Signal;HPM_P1;HPM_P2
2022/03/08 00:01:51;;;;;;;0.30;0.30;;;0.30;99.90;;;;;;5094693;28;20051;-74
2022/03/08 00:04:17;;;;;;;0.30;0.30;;;0.30;99.90;;;;;;5094455;28;20456;-74
2022/03/08 00:06:43;;;;;;;0.40;0.40;;;0.30;99.90;;;;;;5093172;28;20067;-73
2022/03/08 00:09:08;;;;;;;0.30;0.30;;;0.20;99.90;;;;;;5094042;28;20488;-74
2022/03/08 00:11:34;;;;;;;0.30;0.30;;;0.20;99.90;;;;;;5093939;28;20139;-74
2022/03/08 00:14:00;;;;;;;0.30;0.30;;;0.20;99.90;;;;;;5093816;28;20052;-74
2022/03/08 00:16:26;;;;;;;0.38;0.38;;;0.20;99.90;;;;;;5094320;28;20067;-73
2022/03/08 00:18:51;;;;;;;0.30;0.30;;;0.10;99.90;;;;;;5094104;28;20452;-74
2022/03/08 00:21:18;;;;;;;0.30;0.30;;;0.10;99.90;;;;;;5093131;28;20123;-73
2022/03/08 00:23:44;;;;;;;0.40;0.40;;;0.10;99.90;;;;;;5094114;28;20058;-73
2022/03/08 00:26:10;;;;;;;0.30;0.30;;;0.10;99.90;;;;;;5093958;28;20135;-74
2022/03/08 00:28:36;;;;;;;0.30;0.30;;;0.10;99.90;;;;;;5093904;28;20127;-74
2022/03/08 00:31:02;;;;;;;0.30;0.30;;;0.10;99.90;;;;;;5094004;28;20044;-74
2022/03/08 00:33:27;;;;;;;0.40;0.40;;;0.00;99.90;;;;;;5093997;28;20044;-74
2022/03/08 00:35:53;;;;;;;0.30;0.30;;;0.00;99.90;;;;;;5093892;28;20056;-74
2022/03/08 00:38:19;;;;;;;0.30;0.30;;;0.00;99.90;;;;;;5093888;28;20094;-74
2022/03/08 00:40:45;;;;;;;0.40;0.40;;;0.10;99.90;;;;;;5093717;28;20054;-73
2022/03/08 00:43:11;;;;;;;0.30;0.30;;;0.00;99.90;;;;;;5093112;28;20123;-74
2022/03/08 00:45:36;;;;;;;0.30;0.30;;;0.00;99.90;;;;;;5094110;28;20083;-73
2022/03/08 00:48:03;;;;;;;0.30;0.30;;;0.00;99.90;;;;;;5093587;28;20142;-73
2022/03/08 00:50:30;;;;;;;0.40;0.40;;;0.00;99.90;;;;;;5093781;28;20109;-74
2022/03/08 00:52:56;;;;;;;;;;;0.00;99.90;;;;;;5094252;28;20048;-74
2022/03/08 00:55:24;;;;;;;0.30;0.30;;;0.00;99.90;;;;;;5093645;28;19920;-73
2022/03/08 00:57:50;;;;;;;0.30;0.30;;;0.00;99.90;;;;;;5093629;28;20056;-73
2022/03/08 01:00:18;;;;;;;0.30;0.30;;;-0.10;99.90;;;;;;5093779;28;20086;-74
2022/03/08 01:02:44;;;;;;;0.40;0.40;;;-0.10;99.90;;;;;;5093678;28;20052;-74
2022/03/08 01:05:10;;;;;;;0.30;0.30;;;-0.10;99.90;;;;;;5093649;28;20046;-74
2022/03/08 01:07:36;;;;;;;0.30;0.30;;;-0.10;99.90;;;;;;5093685;28;20048;-73
2022/03/08 01:10:04;;;;;;;0.30;0.30;;;-0.20;99.90;;;;;;5093197;28;20291;-74
2022/03/08 01:12:29;;;;;;;0.30;0.30;;;-0.20;99.90;;;;;;5093752;28;20068;-73
2022/03/08 01:14:55;;;;;;;0.40;0.40;;;-0.30;99.90;;;;;;5093872;28;20046;-73
2022/03/08 01:17:20;;;;;;;0.40;0.40;;;-0.40;99.90;;;;;;5093261;28;20043;-73
2022/03/08 01:19:46;;;;;;;0.40;0.40;;;-0.40;99.90;;;;;;5093559;28;20057;-73
2022/03/08 01:22:12;;;;;;;0.40;0.40;;;-0.60;99.90;;;;;;5093498;28;20123;-74
2022/03/08 01:24:37;;;;;;;0.30;0.30;;;-0.50;99.90;;;;;;5093390;28;20093;-73
2022/03/08 01:27:03;;;;;;;0.30;0.30;;;-0.60;99.90;;;;;;5093419;28;20110;-73
2022/03/08 01:29:29;;;;;;;0.40;0.40;;;-0.60;99.90;;;;;;5093375;28;20514;-73
2022/03/08 01:31:54;;;;;;;0.30;0.30;;;-0.60;99.90;;;;;;5093684;28;20052;-74
2022/03/08 01:34:20;;;;;;;0.35;0.35;;;-0.70;99.90;;;;;;5097429;28;20044;-74
2022/03/08 01:36:46;;;;;;;0.38;0.38;;;-0.70;99.90;;;;;;5097222;28;20392;-75
2022/03/08 01:39:11;;;;;;;0.40;0.40;;;-0.70;99.90;;;;;;5097188;28;20104;-73
2022/03/08 01:41:37;;;;;;;0.40;0.40;;;-0.70;99.90;;;;;;5097575;28;20047;-73
2022/03/08 01:44:03;;;;;;;0.40;0.40;;;-0.80;99.90;;;;;;5097077;28;20039;-73
2022/03/08 01:46:29;;;;;;;0.40;0.40;;;-0.80;99.90;;;;;;5097006;28;20051;-74
2022/03/08 01:48:54;;;;;;;0.30;0.30;;;-1.60;99.90;;;;;;5096945;28;20044;-73
2022/03/08 01:51:21;;;;;;;0.32;0.32;;;-0.80;99.90;;;;;;5096893;28;20043;-73
2022/03/08 01:53:47;;;;;;;0.40;0.40;;;-0.80;99.90;;;;;;5096868;28;20048;-74
2022/03/08 01:56:13;;;;;;;0.40;0.40;;;-0.80;99.90;;;;;;5096807;28;20136;-73
2022/03/08 01:58:39;;;;;;;0.40;0.40;;;-0.80;99.90;;;;;;5096951;28;20207;-73
2022/03/08 02:01:05;;;;;;;0.40;0.40;;;-0.80;99.90;;;;;;5096782;28;20490;-74
2022/03/08 02:03:31;;;;;;;0.40;0.40;;;-0.80;99.90;;;;;;5096753;28;20054;-74
2022/03/08 02:05:57;;;;;;;0.40;0.40;;;-0.70;99.90;;;;;;5096628;28;20040;-74
2022/03/08 02:08:23;;;;;;;0.40;0.40;;;-0.80;99.90;;;;;;5096507;28;20044;-73
2022/03/08 02:10:51;;;;;;;0.30;0.30;;;-0.90;99.90;;;;;;5095363;28;20042;-73
2022/03/08 02:13:17;;;;;;;0.40;0.40;;;-0.90;99.90;;;;;;5096096;28;20102;-73
2022/03/08 02:15:48;;;;;;;0.40;0.40;;;-1.00;99.90;;;;;;5096457;28;20377;-74
2022/03/08 02:18:13;;;;;;;0.30;0.30;;;-1.00;99.90;;;;;;5096585;28;20361;-74
2022/03/08 02:20:39;;;;;;;0.40;0.40;;;-0.90;99.90;;;;;;5096428;28;20185;-74
2022/03/08 02:23:04;;;;;;;0.40;0.40;;;-0.90;99.90;;;;;;5096286;28;20044;-74
2022/03/08 02:25:30;;;;;;;0.40;0.40;;;-0.90;99.90;;;;;;5095570;28;20135;-73
2022/03/08 02:27:55;;;;;;;0.40;0.40;;;-0.90;99.90;;;;;;5095910;28;20055;-74
2022/03/08 02:30:23;;;;;;;0.40;0.40;;;-0.90;99.90;;;;;;5096557;28;20527;-74
2022/03/08 02:32:49;;;;;;;0.40;0.40;;;-0.90;99.90;;;;;;5096164;28;20203;-73
2022/03/08 02:35:17;;;;;;;0.30;0.30;;;-0.90;99.90;;;;;;5096270;28;20453;-73
2022/03/08 02:37:50;;;;;;;0.40;0.40;;;-0.80;99.90;;;;;;5096005;28;20059;-73
2022/03/08 02:40:18;;;;;;;0.30;0.30;;;-0.90;99.90;;;;;;5096095;28;20048;-73
2022/03/08 02:42:44;;;;;;;0.40;0.40;;;-0.90;99.90;;;;;;5095979;28;20131;-74
2022/03/08 02:45:11;;;;;;;0.40;0.40;;;-0.90;99.90;;;;;;5094484;28;20079;-74
2022/03/08 02:47:37;;;;;;;;;;;-0.90;99.90;;;;;;5096269;28;20040;-73
2022/03/08 02:50:08;;;;;;;0.40;0.40;;;-0.60;99.90;;;;;;5095695;28;20014;-74
2022/03/08 02:52:35;;;;;;;0.30;0.30;;;-0.90;99.90;;;;;;5095683;28;20044;-73
2022/03/08 02:55:00;;;;;;;0.40;0.40;;;-1.00;99.90;;;;;;5095963;28;20048;-73
2022/03/08 02:57:26;;;;;;;0.40;0.40;;;-0.90;99.90;;;;;;5095618;28;20051;-74
2022/03/08 02:59:52;;;;;;;0.35;0.35;;;-1.00;99.90;;;;;;5095831;28;20043;-73
2022/03/08 03:02:17;;;;;;;0.40;0.40;;;-1.00;99.90;;;;;;5095591;28;20395;-73
2022/03/08 03:04:43;;;;;;;0.30;0.30;;;-1.20;99.90;;;;;;5095510;28;20042;-73
2022/03/08 03:07:09;;;;;;;0.40;0.40;;;-1.00;99.90;;;;;;5095439;28;20560;-73
2022/03/08 03:09:34;;;;;;;0.40;0.40;;;-1.10;99.90;;;;;;5095390;28;20047;-74
2022/03/08 03:12:00;;;;;;;0.40;0.40;;;-1.10;99.90;;;;;;5094762;28;20097;-74
2022/03/08 03:14:26;;;;;;;0.40;0.40;;;-1.20;99.90;;;;;;5095378;28;20055;-73
2022/03/08 03:16:51;;;;;;;0.40;0.40;;;-1.20;99.90;;;;;;5095471;28;20051;-73
2022/03/08 03:19:17;;;;;;;0.40;0.40;;;-1.30;99.90;;;;;;5095411;28;20044;-73
2022/03/08 03:21:42;;;;;;;0.30;0.30;;;-1.30;99.90;;;;;;5095044;28;20044;-74
2022/03/08 03:24:08;;;;;;;0.40;0.40;;;-1.30;99.90;;;;;;5095123;28;20047;-75
2022/03/08 03:26:34;;;;;;;0.40;0.40;;;-1.30;99.90;;;;;;5095117;28;20080;-74
2022/03/08 03:29:00;;;;;;;0.40;0.40;;;-1.40;99.90;;;;;;5094972;28;20047;-73
2022/03/08 03:31:25;;;;;;;0.40;0.40;;;-1.40;99.90;;;;;;5094959;28;20040;-73
2022/03/08 03:33:51;;;;;;;0.40;0.40;;;-1.40;99.90;;;;;;5094999;28;20040;-74
2022/03/08 03:36:16;;;;;;;0.40;0.40;;;-1.40;99.90;;;;;;5094820;28;20052;-73
2022/03/08 03:38:42;;;;;;;0.40;0.40;;;-1.40;99.90;;;;;;5095271;28;20039;-74
2022/03/08 03:41:07;;;;;;;0.40;0.40;;;-1.40;99.90;;;;;;5094842;28;20044;-73
2022/03/08 03:43:34;;;;;;;0.40;0.40;;;-1.20;99.90;;;;;;5094841;28;20491;-74
2022/03/08 03:45:59;;;;;;;0.40;0.40;;;-1.40;99.90;;;;;;5094852;28;20047;-74
2022/03/08 03:48:25;;;;;;;0.40;0.40;;;-1.50;99.90;;;;;;5094703;28;20044;-73
2022/03/08 03:50:51;;;;;;;0.40;0.40;;;-1.50;99.90;;;;;;5094614;28;20048;-74
2022/03/08 03:53:16;;;;;;;0.40;0.40;;;-1.60;99.90;;;;;;5094401;28;20075;-73
2022/03/08 03:55:42;;;;;;;0.40;0.40;;;-1.70;99.90;;;;;;5094911;28;20047;-73
2022/03/08 03:58:07;;;;;;;0.40;0.40;;;-1.70;99.90;;;;;;5094870;28;20126;-73
2022/03/08 04:00:33;;;;;;;0.40;0.40;;;-1.80;99.90;;;;;;5094462;28;20463;-73
2022/03/08 04:02:59;;;;;;;0.40;0.40;;;-1.80;99.90;;;;;;5094437;28;20048;-73
2022/03/08 04:05:24;;;;;;;0.40;0.40;;;-1.80;99.90;;;;;;5094355;28;20052;-73
2022/03/08 04:07:50;;;;;;;0.40;0.40;;;-1.80;99.90;;;;;;5094385;28;20051;-74
2022/03/08 04:10:17;;;;;;;0.40;0.40;;;-1.90;99.90;;;;;;5094220;28;20048;-73
2022/03/08 04:12:43;;;;;;;0.40;0.40;;;-1.80;99.90;;;;;;5094004;28;20450;-73
2022/03/08 04:15:10;;;;;;;0.40;0.40;;;-1.80;99.90;;;;;;5093911;28;20535;-73
2022/03/08 04:17:36;;;;;;;0.40;0.40;;;-1.90;99.90;;;;;;5094243;28;20052;-74
2022/03/08 04:20:03;;;;;;;0.40;0.40;;;-1.90;99.90;;;;;;5094151;28;20040;-73
2022/03/08 04:22:29;;;;;;;0.40;0.40;;;-1.00;99.90;;;;;;5094395;28;20385;-73
2022/03/08 04:24:54;;;;;;;0.40;0.40;;;-1.90;99.90;;;;;;5093800;28;20051;-73
2022/03/08 04:27:20;;;;;;;0.40;0.40;;;-1.80;99.90;;;;;;5094048;28;20480;-74
2022/03/08 04:29:45;;;;;;;0.40;0.40;;;-1.80;99.90;;;;;;5093967;28;20040;-73
2022/03/08 04:32:11;;;;;;;0.40;0.40;;;-1.80;99.90;;;;;;5094142;28;20046;-73
2022/03/08 04:34:37;;;;;;;0.40;0.40;;;-1.80;99.90;;;;;;5093944;28;20486;-74
2022/03/08 04:37:02;;;;;;;0.40;0.40;;;-1.80;99.90;;;;;;5093917;28;20099;-73
2022/03/08 04:39:28;;;;;;;0.40;0.40;;;-1.80;99.90;;;;;;5093764;28;20087;-74
2022/03/08 04:41:54;;;;;;;0.40;0.40;;;-1.80;99.90;;;;;;5093831;28;20084;-73
2022/03/08 04:44:19;;;;;;;0.40;0.40;;;-1.80;99.90;;;;;;5093916;28;20387;-74
2022/03/08 04:46:45;;;;;;;0.40;0.40;;;-1.80;99.90;;;;;;5093834;28;20048;-74
2022/03/08 04:49:10;;;;;;;0.40;0.40;;;-1.80;99.90;;;;;;5093830;28;20047;-74
2022/03/08 04:51:36;;;;;;;0.40;0.40;;;-1.80;99.90;;;;;;5093702;28;20109;-74
2022/03/08 04:54:02;;;;;;;0.40;0.40;;;-1.80;99.90;;;;;;5093855;28;20557;-74
2022/03/08 04:56:27;;;;;;;0.40;0.40;;;-1.80;99.90;;;;;;5094100;28;20047;-74
2022/03/08 04:58:53;;;;;;;0.40;0.40;;;-1.90;99.90;;;;;;5093947;28;20392;-73
2022/03/08 05:01:19;;;;;;;0.40;0.40;;;-1.80;99.90;;;;;;5093734;28;20066;-74
2022/03/08 05:03:45;;;;;;;0.40;0.40;;;-1.80;99.90;;;;;;5093749;28;20134;-74
2022/03/08 05:06:10;;;;;;;0.40;0.40;;;-1.80;99.90;;;;;;5093573;28;20040;-74
2022/03/08 05:08:36;;;;;;;0.40;0.40;;;-1.90;99.90;;;;;;5096811;28;20140;-73
2022/03/08 05:11:02;;;;;;;0.40;0.40;;;-1.80;99.90;;;;;;5097831;28;20397;-74
2022/03/08 05:13:30;;;;;;;0.40;0.40;;;-1.90;99.90;;;;;;5097708;28;20059;-73
2022/03/08 05:15:57;;;;;;;0.40;0.40;;;-1.90;99.90;;;;;;5097521;28;20514;-73
2022/03/08 05:18:22;;;;;;;0.40;0.40;;;-1.90;99.90;;;;;;5097614;28;20044;-74
2022/03/08 05:20:48;;;;;;;0.40;0.40;;;-1.90;99.90;;;;;;5097480;28;20044;-74
2022/03/08 05:23:13;;;;;;;0.40;0.40;;;-1.80;99.90;;;;;;5097560;28;20086;-73
2022/03/08 05:25:39;;;;;;;0.40;0.40;;;-1.90;99.90;;;;;;5097458;28;20052;-74
2022/03/08 05:28:05;;;;;;;0.40;0.40;;;-1.90;99.90;;;;;;5097398;28;20093;-73
2022/03/08 05:30:31;;;;;;;0.40;0.40;;;-1.20;99.90;;;;;;5097526;28;20044;-74
2022/03/08 05:32:56;;;;;;;0.40;0.40;;;-1.90;99.90;;;;;;5097382;28;20130;-74
2022/03/08 05:35:22;;;;;;;0.40;0.40;;;-1.90;99.90;;;;;;5096968;28;20080;-73
2022/03/08 05:37:48;;;;;;;0.40;0.40;;;-1.90;99.90;;;;;;5097180;28;20044;-73
2022/03/08 05:40:13;;;;;;;0.40;0.40;;;-1.90;99.90;;;;;;5097162;28;20043;-73
2022/03/08 05:42:39;;;;;;;0.40;0.40;;;-1.90;99.90;;;;;;5097109;28;20127;-73
2022/03/08 05:45:09;;;;;;;0.40;0.40;;;-2.00;99.90;;;;;;5097012;28;20132;-73
2022/03/08 05:47:36;;;;;;;0.40;0.40;;;-1.90;99.90;;;;;;5097003;28;20040;-73
2022/03/08 05:50:02;;;;;;;0.40;0.40;;;-2.00;99.90;;;;;;5096882;28;20044;-74
2022/03/08 05:52:28;;;;;;;0.40;0.40;;;-2.00;99.90;;;;;;5097445;28;20086;-73
2022/03/08 05:54:53;;;;;;;0.40;0.40;;;-2.00;99.90;;;;;;5096768;28;20044;-74
2022/03/08 05:57:19;;;;;;;0.40;0.40;;;-2.10;99.90;;;;;;5096806;28;20046;-74
2022/03/08 05:59:44;;;;;;;0.40;0.40;;;-2.10;99.90;;;;;;5096629;28;20177;-73
2022/03/08 06:02:11;;;;;;;0.40;0.40;;;-2.10;99.90;;;;;;5096752;28;20052;-73
2022/03/08 06:04:37;;;;;;;0.40;0.40;;;-2.10;99.90;;;;;;5096700;28;20048;-74
2022/03/08 06:07:03;;;;;;;0.40;0.40;;;-2.00;99.90;;;;;;5096711;28;20488;-74
2022/03/08 06:09:28;;;;;;;0.40;0.40;;;-2.00;99.90;;;;;;5095816;28;20498;-73
2022/03/08 06:11:54;;;;;;;0.40;0.40;;;-1.80;99.90;;;;;;5095093;28;20048;-73
2022/03/08 06:14:19;;;;;;;0.40;0.40;;;-1.90;99.90;;;;;;5096794;28;20048;-74
2022/03/08 06:16:47;;;;;;;0.40;0.40;;;-1.90;99.90;;;;;;5096398;28;20396;-75
2022/03/08 06:19:13;;;;;;;0.40;0.40;;;-1.80;99.90;;;;;;5096228;28;20579;-73
2022/03/08 06:21:38;;;;;;;0.40;0.40;;;-1.80;99.90;;;;;;5096404;28;20127;-73
2022/03/08 06:24:04;;;;;;;0.40;0.40;;;-1.80;99.90;;;;;;5096450;28;20396;-81
2022/03/08 06:26:31;;;;;;;0.40;0.40;;;-1.80;99.90;;;;;;5095973;28;20396;-73
2022/03/08 06:28:57;;;;;;;0.40;0.40;;;-1.70;99.90;;;;;;5096286;28;20051;-75
2022/03/08 06:31:22;;;;;;;0.40;0.40;;;-1.70;99.90;;;;;;5096232;28;20392;-76
2022/03/08 06:33:48;;;;;;;0.40;0.40;;;-1.70;99.90;;;;;;5096213;28;20040;-73
2022/03/08 06:36:13;;;;;;;0.40;0.40;;;-1.60;99.90;;;;;;5096040;28;20044;-74
2022/03/08 06:38:39;;;;;;;0.40;0.40;;;-1.60;99.90;;;;;;5096003;28;20044;-73
2022/03/08 06:41:05;;;;;;;0.40;0.40;;;-1.50;99.90;;;;;;5096056;28;20051;-75
2022/03/08 06:43:30;;;;;;;0.40;0.40;;;-1.50;99.90;;;;;;5095947;28;20170;-73
2022/03/08 06:45:56;;;;;;;0.40;0.40;;;-1.10;99.90;;;;;;5095901;28;20047;-74
2022/03/08 06:48:21;;;;;;;0.40;0.40;;;-1.40;99.90;;;;;;5095820;28;20567;-75
2022/03/08 06:50:47;;;;;;;0.40;0.40;;;-1.40;99.90;;;;;;5095815;28;20129;-74
2022/03/08 06:53:12;;;;;;;0.40;0.40;;;-1.30;99.90;;;;;;5095759;28;20044;-74
2022/03/08 06:55:38;;;;;;;0.40;0.40;;;-1.20;99.90;;;;;;5095756;28;20047;-73
2022/03/08 06:58:04;;;;;;;0.40;0.40;;;-1.90;99.90;;;;;;5095762;28;20052;-74
2022/03/08 07:00:29;;;;;;;0.40;0.40;;;-1.10;99.90;;;;;;5095868;28;20063;-74
2022/03/08 07:02:55;;;;;;;0.40;0.40;;;-0.90;99.90;;;;;;5094386;28;20480;-74
2022/03/08 07:05:21;;;;;;;0.40;0.40;;;-1.00;99.90;;;;;;5095533;28;20044;-72
2022/03/08 07:07:46;;;;;;;0.40;0.40;;;-0.90;99.90;;;;;;5095535;28;20480;-74
2022/03/08 07:10:13;;;;;;;0.40;0.40;;;-0.80;99.90;;;;;;5095263;28;20036;-73
2022/03/08 07:12:38;;;;;;;0.40;0.40;;;-0.80;99.90;;;;;;5095318;28;20131;-73
2022/03/08 07:15:06;;;;;;;0.40;0.40;;;-0.70;99.90;;;;;;5095579;28;20131;-73
2022/03/08 07:17:31;;;;;;;;;;;-0.60;99.90;;;;;;5095749;28;20052;-73
2022/03/08 07:19:57;;;;;;;0.40;0.40;;;-0.60;99.90;;;;;;5095249;28;19942;-74
2022/03/08 07:22:22;;;;;;;0.40;0.40;;;-0.50;99.90;;;;;;5095171;28;20044;-75
2022/03/08 07:24:48;;;;;;;0.40;0.40;;;-0.40;99.90;;;;;;5095172;28;20048;-74
2022/03/08 07:27:13;;;;;;;0.40;0.40;;;-0.30;99.90;;;;;;5094273;28;20089;-73
2022/03/08 07:29:39;;;;;;;0.40;0.40;;;-0.30;99.90;;;;;;5094768;28;20473;-71
2022/03/08 07:32:05;;;;;;;0.40;0.40;;;-0.10;99.90;;;;;;5094962;28;20396;-74
2022/03/08 07:34:30;;;;;;;0.40;0.40;;;0.10;99.90;;;;;;5094583;28;20051;-77
2022/03/08 07:36:56;;;;;;;0.40;0.40;;;0.20;99.90;;;;;;5095404;28;20044;-76
2022/03/08 07:39:21;;;;;;;0.30;0.30;;;0.30;99.90;;;;;;5095272;28;20043;-74
2022/03/08 07:41:47;;;;;;;0.35;0.35;;;0.50;99.90;;;;;;5094854;28;20131;-76
2022/03/08 07:44:12;;;;;;;0.40;0.40;;;0.60;99.90;;;;;;5094517;28;20052;-74
2022/03/08 07:46:39;;;;;;;0.40;0.40;;;0.70;99.90;;;;;;5094842;28;20048;-74
2022/03/08 07:49:05;;;;;;;0.40;0.40;;;0.90;99.90;;;;;;5094578;28;20047;-74
2022/03/08 07:51:31;;;;;;;0.40;0.40;;;1.10;99.90;;;;;;5094716;28;20130;-75
2022/03/08 07:53:56;;;;;;;0.40;0.40;;;1.30;99.90;;;;;;5094673;28;20476;-75
2022/03/08 07:56:22;;;;;;;0.40;0.40;;;1.30;99.90;;;;;;5094576;28;20042;-77
2022/03/08 07:58:48;;;;;;;0.40;0.40;;;2.30;99.90;;;;;;5094466;28;20116;-74
2022/03/08 08:01:13;;;;;;;0.40;0.40;;;1.70;99.90;;;;;;5094678;28;20044;-75
2022/03/08 08:03:39;;;;;;;0.32;0.32;;;1.90;99.90;;;;;;5094149;28;20040;-74
2022/03/08 08:06:05;;;;;;;0.30;0.30;;;2.00;99.90;;;;;;5094058;28;20123;-73
2022/03/08 08:08:30;;;;;;;0.30;0.30;;;2.10;99.90;;;;;;5094237;28;20122;-73
2022/03/08 08:10:56;;;;;;;0.30;0.30;;;2.20;99.90;;;;;;5094249;28;20139;-73
2022/03/08 08:13:22;;;;;;;0.30;0.30;;;2.40;99.90;;;;;;5094043;28;20056;-74
2022/03/08 08:15:47;;;;;;;0.30;0.30;;;2.50;99.90;;;;;;5094207;28;20129;-74
2022/03/08 08:18:13;;;;;;;0.30;0.30;;;2.60;99.90;;;;;;5094524;28;20043;-74
2022/03/08 08:20:39;;;;;;;0.30;0.30;;;2.70;99.90;;;;;;5094117;28;20079;-76
2022/03/08 08:23:05;;;;;;;0.30;0.30;;;2.90;99.90;;;;;;5094184;28;20044;-75
2022/03/08 08:25:31;;;;;;;0.30;0.30;;;2.90;99.90;;;;;;5094486;28;20473;-71
2022/03/08 08:27:56;;;;;;;0.30;0.30;;;3.00;99.90;;;;;;5094473;28;20047;-74
2022/03/08 08:30:22;;;;;;;0.30;0.30;;;3.10;99.90;;;;;;5092829;28;20044;-74
2022/03/08 08:32:50;;;;;;;0.30;0.30;;;3.30;99.90;;;;;;5093934;28;20087;-74
2022/03/08 08:35:16;;;;;;;0.30;0.30;;;3.40;99.90;;;;;;5093932;28;20047;-75
2022/03/08 08:37:42;;;;;;;0.33;0.33;;;3.50;99.90;;;;;;5093778;28;20510;-75
2022/03/08 08:40:08;;;;;;;0.30;0.30;;;3.50;99.90;;;;;;5093835;28;20036;-75
2022/03/08 08:42:34;;;;;;;0.30;0.30;;;3.60;99.90;;;;;;5093118;28;20047;-72
2022/03/08 08:44:59;;;;;;;0.30;0.30;;;3.60;99.90;;;;;;5094184;28;20472;-76
2022/03/08 08:47:25;;;;;;;0.30;0.30;;;3.70;99.90;;;;;;5093860;28;20376;-75
2022/03/08 08:49:51;;;;;;;0.30;0.30;;;3.80;99.90;;;;;;5093680;28;20063;-75
2022/03/08 08:52:16;;;;;;;0.30;0.30;;;4.00;99.90;;;;;;5093892;28;20488;-74
2022/03/08 08:54:42;;;;;;;0.30;0.30;;;4.10;99.90;;;;;;5093091;28;20113;-74
2022/03/08 08:57:08;;;;;;;0.30;0.30;;;4.20;99.90;;;;;;5093428;28;20422;-74
2022/03/08 08:59:33;;;;;;;0.30;0.30;;;4.30;99.90;;;;;;5092744;28;20036;-75
2022/03/08 09:01:59;;;;;;;0.30;0.30;;;4.40;99.90;;;;;;5093648;28;20097;-77
2022/03/08 09:04:24;;;;;;;0.30;0.30;;;4.50;99.90;;;;;;5093669;28;20086;-74
2022/03/08 09:06:50;;;;;;;0.30;0.30;;;4.50;99.90;;;;;;5093674;28;20040;-74
2022/03/08 09:09:15;;;;;;;0.30;0.30;;;4.70;99.90;;;;;;5094020;28;20071;-73
2022/03/08 09:11:41;;;;;;;0.30;0.30;;;4.80;99.90;;;;;;5093554;28;20044;-73
2022/03/08 09:14:08;;;;;;;0.30;0.30;;;4.90;99.90;;;;;;5093921;28;20139;-74
2022/03/08 09:16:34;;;;;;;0.30;0.30;;;5.00;99.90;;;;;;5093315;28;20092;-75
2022/03/08 09:19:00;;;;;;;0.30;0.30;;;5.10;99.90;;;;;;5092174;28;20040;-75
2022/03/08 09:21:25;;;;;;;0.30;0.30;;;5.10;99.90;;;;;;5093597;28;20036;-75
2022/03/08 09:23:51;;;;;;;0.30;0.30;;;5.20;99.90;;;;;;5093544;28;20044;-74
2022/03/08 09:26:16;;;;;;;0.30;0.30;;;5.40;99.90;;;;;;5093086;28;20082;-74
2022/03/08 09:28:42;;;;;;;0.30;0.30;;;5.50;99.90;;;;;;5093328;28;20040;-74
2022/03/08 09:31:08;;;;;;;0.30;0.30;;;5.60;99.90;;;;;;5091947;28;20044;-74
2022/03/08 09:33:34;;;;;;;0.30;0.30;;;5.60;99.90;;;;;;5092944;28;20044;-75
2022/03/08 09:35:59;;;;;;;0.20;0.20;;;5.60;99.90;;;;;;5093252;28;20044;-74
2022/03/08 09:38:25;;;;;;;0.30;0.30;;;5.70;99.90;;;;;;5093750;28;20059;-74
2022/03/08 09:40:52;;;;;;;0.30;0.30;;;5.90;99.90;;;;;;5093167;28;20495;-75
2022/03/08 09:43:18;;;;;;;0.30;0.30;;;5.90;99.90;;;;;;5093725;28;20438;-74
2022/03/08 09:45:44;;;;;;;0.28;0.28;;;6.50;99.90;;;;;;5093232;28;20052;-74
2022/03/08 09:48:10;;;;;;;0.30;0.30;;;6.10;99.90;;;;;;5093270;28;20040;-74
2022/03/08 09:50:36;;;;;;;0.20;0.20;;;6.20;99.90;;;;;;5092668;28;20044;-74
2022/03/08 09:53:03;;;;;;;0.30;0.30;;;6.30;99.90;;;;;;5093711;28;20392;-74
2022/03/08 09:55:29;;;;;;;0.30;0.30;;;6.30;99.90;;;;;;5097523;28;20388;-74
2022/03/08 09:57:56;;;;;;;0.20;0.20;;;6.40;99.90;;;;;;5096734;28;20052;-74
2022/03/08 10:00:23;;;;;;;0.30;0.30;;;6.50;99.90;;;;;;5096820;28;20040;-75
2022/03/08 10:02:54;;;;;;;0.30;0.30;;;6.50;99.90;;;;;;5096690;28;20048;-74
2022/03/08 10:05:26;;;;;;;0.22;0.22;;;6.70;99.90;;;;;;5096645;28;20110;-74
2022/03/08 10:08:03;;;;;;;0.30;0.30;;;6.70;99.90;;;;;;5096268;28;20052;-74
2022/03/08 10:10:32;;;;;;;0.30;0.30;;;6.90;99.90;;;;;;5096981;28;20048;-75
2022/03/08 10:12:58;;;;;;;0.30;0.30;;;6.90;99.90;;;;;;5096485;28;20100;-74
2022/03/08 10:15:24;;;;;;;0.20;0.20;;;7.00;99.90;;;;;;5095682;28;20069;-74
2022/03/08 10:17:50;;;;;;;0.20;0.20;;;7.10;99.90;;;;;;5096376;28;20119;-75
2022/03/08 10:20:30;;;;;;;0.30;0.30;;;7.20;99.90;;;;;;5096390;28;20044;-74
2022/03/08 10:22:56;;;;;;;0.20;0.20;;;7.30;99.90;;;;;;5096303;28;20040;-74
2022/03/08 10:25:26;;;;;;;0.30;0.30;;;7.20;99.90;;;;;;5095703;28;20476;-74
2022/03/08 10:27:51;;;;;;;0.20;0.20;;;7.40;99.90;;;;;;5096263;28;20047;-74
2022/03/08 10:30:17;;;;;;;0.20;0.20;;;7.40;99.90;;;;;;5095519;28;20051;-74
2022/03/08 10:32:45;;;;;;;0.20;0.20;;;7.40;99.90;;;;;;5096253;28;20044;-74
2022/03/08 10:35:11;;;;;;;0.20;0.20;;;7.40;99.90;;;;;;5096007;28;20483;-74
2022/03/08 10:37:39;;;;;;;0.20;0.20;;;7.60;99.90;;;;;;5096378;28;20131;-74
2022/03/08 10:40:09;;;;;;;0.20;0.20;;;7.60;99.90;;;;;;5096284;28;20040;-74
2022/03/08 10:42:37;;;;;;;0.20;0.20;;;7.70;99.90;;;;;;5096077;28;20047;-74
2022/03/08 10:45:07;;;;;;;0.25;0.25;;;7.80;99.90;;;;;;5095636;28;20044;-74
2022/03/08 10:47:47;;;;;;;0.20;0.20;;;7.80;99.90;;;;;;5095896;28;20132;-75
2022/03/08 10:50:15;;;;;;;0.20;0.20;;;7.90;99.90;;;;;;5095738;28;20089;-74
2022/03/08 10:52:45;;;;;;;0.20;0.20;;;8.00;99.90;;;;;;5096012;28;20458;-74
2022/03/08 10:55:29;;;;;;;0.20;0.20;;;8.00;99.90;;;;;;5095691;28;20097;-74
2022/03/08 10:58:02;;;;;;;0.20;0.20;;;8.10;99.90;;;;;;5095649;28;20044;-75
2022/03/08 11:00:31;;;;;;;0.20;0.20;;;8.20;99.90;;;;;;5094829;28;20048;-74
2022/03/08 11:02:57;;;;;;;0.25;0.25;;;8.20;99.80;;;;;;5095573;28;20098;-73
2022/03/08 11:05:34;;;;;;;0.20;0.20;;;8.20;99.90;;;;;;5094682;28;20048;-74
2022/03/08 11:07:59;;;;;;;0.20;0.20;;;8.30;99.70;;;;;;5093724;28;20051;-74
2022/03/08 11:10:29;;;;;;;0.20;0.20;;;8.30;99.90;;;;;;5094924;28;20040;-74
2022/03/08 11:12:58;;;;;;;0.20;0.20;;;8.40;99.70;;;;;;5095350;28;20091;-73
2022/03/08 11:15:26;;;;;;;0.20;0.20;;;8.50;99.60;;;;;;5095172;28;20131;-73
2022/03/08 11:17:54;;;;;;;0.20;0.20;;;8.60;98.60;;;;;;5094689;28;20488;-73
2022/03/08 11:20:21;;;;;;;0.20;0.20;;;8.60;99.30;;;;;;5094788;28;20048;-74
2022/03/08 11:22:47;;;;;;;;;;;8.60;99.20;;;;;;5095435;28;20100;-74
2022/03/08 11:25:16;;;;;;;0.20;0.20;;;8.70;99.80;;;;;;5094952;28;19927;-75
2022/03/08 11:27:43;;;;;;;0.20;0.20;;;8.80;98.80;;;;;;5095055;28;20036;-75
2022/03/08 11:30:12;;;;;;;0.20;0.20;;;8.80;97.80;;;;;;5094914;28;20170;-74
2022/03/08 11:32:46;;;;;;;0.20;0.20;;;8.80;98.60;;;;;;5094732;28;20105;-76
2022/03/08 11:35:53;;;;;;;0.20;0.20;;;8.90;98.90;;;;;;5094662;28;20134;-76
2022/03/08 11:38:19;;;;;;;0.20;0.20;;;9.00;99.10;;;;;;5093376;28;20056;-75
2022/03/08 11:40:53;;;;;;;0.20;0.20;;;9.10;98.70;;;;;;5094609;28;20063;-76
2022/03/08 11:43:20;;;;;;;0.20;0.20;;;9.20;98.20;;;;;;5094316;28;20048;-75
2022/03/08 11:45:50;;;;;;;0.20;0.20;;;9.20;98.40;;;;;;5094442;28;20055;-75
2022/03/08 11:48:22;;;;;;;0.20;0.20;;;9.20;97.70;;;;;;5094731;28;20048;-74
2022/03/08 11:50:48;;;;;;;0.20;0.20;;;9.30;98.50;;;;;;5094391;28;20052;-75
2022/03/08 11:53:23;;;;;;;0.20;0.20;;;9.40;98.50;;;;;;5094629;28;20097;-75
2022/03/08 11:55:56;;;;;;;0.20;0.20;;;9.40;98.90;;;;;;5094211;28;20052;-75
2022/03/08 11:58:40;;;;;;;0.20;0.20;;;9.50;98.30;;;;;;5094570;28;20048;-74
2022/03/08 12:01:06;;;;;;;0.20;0.20;;;9.60;98.20;;;;;;5094317;28;20056;-78
2022/03/08 12:03:31;;;;;;;0.20;0.20;;;9.70;97.80;;;;;;5093104;28;20044;-75
2022/03/08 12:06:02;;;;;;;0.20;0.20;;;9.80;97.80;;;;;;5088423;28;20392;-76
2022/03/08 12:08:27;;;;;;;0.20;0.20;;;9.80;97.30;;;;;;5079357;28;20049;-74
2022/03/08 12:11:30;;;;;;;0.20;0.20;;;9.80;97.90;;;;;;5087612;28;20054;-75
2022/03/08 12:14:04;;;;;;;0.20;0.20;;;9.90;97.70;;;;;;5089232;28;20056;-75
2022/03/08 12:16:30;;;;;;;0.20;0.20;;;9.90;97.80;;;;;;5093800;28;20047;-75
2022/03/08 12:18:59;;;;;;;0.20;0.20;;;10.00;96.70;;;;;;5093656;28;20047;-74
2022/03/08 12:21:24;;;;;;;0.20;0.20;;;10.10;96.70;;;;;;5094048;28;20399;-76
2022/03/08 12:24:00;;;;;;;0.20;0.20;;;10.00;97.10;;;;;;5093908;28;20384;-74
2022/03/08 12:26:50;;;;;;;0.20;0.20;;;10.10;97.30;;;;;;5092877;28;20052;-76
2022/03/08 12:29:17;;;;;;;0.20;0.20;;;10.10;97.30;;;;;;5093326;28;20498;-76
2022/03/08 12:31:58;;;;;;;0.20;0.20;;;10.20;96.50;;;;;;5093719;28;20044;-76
2022/03/08 12:34:35;;;;;;;0.20;0.20;;;10.30;97.20;;;;;;5093697;28;20567;-75
2022/03/08 12:37:16;;;;;;;0.20;0.20;;;10.20;96.30;;;;;;5093951;28;20508;-76
2022/03/08 12:40:00;;;;;;;0.20;0.20;;;10.20;96.30;;;;;;5093732;28;20040;-76
2022/03/08 12:42:43;;;;;;;0.20;0.20;;;10.20;96.30;;;;;;5093727;28;20047;-76
2022/03/08 12:45:21;;;;;;;0.20;0.20;;;10.20;96.80;;;;;;5093616;28;20407;-76
2022/03/08 12:47:51;;;;;;;;;;;10.30;96.30;;;;;;5093704;28;20131;-76
2022/03/08 12:50:20;;;;;;;0.20;0.20;;;10.30;96.40;;;;;;5093490;28;20269;-73
2022/03/08 12:52:51;;;;;;;0.20;0.20;;;10.30;95.80;;;;;;5093690;28;20127;-75